sensor_id;sensor_type;location;lat;lon;timestamp;P1;durP1;ratioP1;P2;durP2;ratioP2
74108;SDS011;62466;47.566;7.786;2023-05-20T05:44:36;8.35;;;5.05;;
74108;SDS011;62466;47.566;7.786;2023-05-20T05:47:04;8.70;;;5.25;;
74108;SDS011;62466;47.566;7.786;2023-05-20T05:49:31;7.13;;;5.13;;
74108;SDS011;62466;47.566;7.786;2023-05-20T05:51:57;7.10;;;5.13;;
74108;SDS011;62466;47.566;7.786;2023-05-20T05:54:23;6.53;;;4.70;;
74108;SDS011;62466;47.566;7.786;2023-05-20T05:56:52;6.97;;;4.70;;
74108;SDS011;62466;47.566;7.786;2023-05-20T05:59:20;4.65;;;4.15;;
74108;SDS011;62466;47.566;7.786;2023-05-20T06:01:46;7.20;;;4.80;;
74108;SDS011;62466;47.566;7.786;2023-05-20T06:04:13;7.47;;;5.28;;
74108;SDS011;62466;47.566;7.786;2023-05-20T06:06:39;6.78;;;4.68;;
74108;SDS011;62466;47.566;7.786;2023-05-20T06:09:05;7.00;;;4.80;;
74108;SDS011;62466;47.566;7.786;2023-05-20T06:11:30;5.00;;;4.40;;
74108;SDS011;62466;47.566;7.786;2023-05-20T06:13:56;7.78;;;4.10;;
74108;SDS011;62466;47.566;7.786;2023-05-20T06:16:23;7.78;;;4.50;;
74108;SDS011;62466;47.566;7.786;2023-05-20T06:18:50;8.07;;;4.75;;
74108;SDS011;62466;47.566;7.786;2023-05-20T06:21:17;8.60;;;4.70;;
74108;SDS011;62466;47.566;7.786;2023-05-20T06:23:43;7.82;;;5.07;;
74108;SDS011;62466;47.566;7.786;2023-05-20T06:26:11;8.75;;;4.75;;
74108;SDS011;62466;47.566;7.786;2023-05-20T06:28:37;6.47;;;4.40;;
74108;SDS011;62466;47.566;7.786;2023-05-20T06:31:03;6.38;;;4.80;;
74108;SDS011;62466;47.566;7.786;2023-05-20T06:33:32;9.07;;;4.47;;
74108;SDS011;62466;47.566;7.786;2023-05-20T06:36:03;7.17;;;4.80;;
74108;SDS011;62466;47.566;7.786;2023-05-20T06:38:29;7.22;;;4.65;;
74108;SDS011;62466;47.566;7.786;2023-05-20T06:40:55;6.45;;;4.18;;
74108;SDS011;62466;47.566;7.786;2023-05-20T06:43:21;6.50;;;4.22;;
74108;SDS011;62466;47.566;7.786;2023-05-20T06:46:07;6.05;;;4.65;;
74108;SDS011;62466;47.566;7.786;2023-05-20T06:48:41;6.85;;;4.65;;
74108;SDS011;62466;47.566;7.786;2023-05-20T06:51:08;7.00;;;4.60;;
74108;SDS011;62466;47.566;7.786;2023-05-20T06:53:34;6.93;;;4.43;;
74108;SDS011;62466;47.566;7.786;2023-05-20T06:56:01;5.40;;;4.32;;
74108;SDS011;62466;47.566;7.786;2023-05-20T06:58:28;8.38;;;4.80;;
74108;SDS011;62466;47.566;7.786;2023-05-20T07:00:56;7.15;;;3.75;;
74108;SDS011;62466;47.566;7.786;2023-05-20T07:03:31;4.90;;;4.35;;
74108;SDS011;62466;47.566;7.786;2023-05-20T07:08:42;5.30;;;4.40;;
74108;SDS011;62466;47.566;7.786;2023-05-20T07:11:33;5.30;;;4.68;;
74108;SDS011;62466;47.566;7.786;2023-05-20T07:14:07;7.47;;;5.00;;
74108;SDS011;62466;47.566;7.786;2023-05-20T07:16:41;6.03;;;3.95;;
74108;SDS011;62466;47.566;7.786;2023-05-20T07:27:36;9.05;;;4.65;;
74108;SDS011;62466;47.566;7.786;2023-05-20T07:33:19;9.10;;;4.70;;
74108;SDS011;62466;47.566;7.786;2023-05-20T07:35:49;8.93;;;5.05;;
74108;SDS011;62466;47.566;7.786;2023-05-20T07:38:19;6.78;;;4.03;;
74108;SDS011;62466;47.566;7.786;2023-05-20T07:40:51;6.75;;;4.68;;
74108;SDS011;62466;47.566;7.786;2023-05-20T07:43:21;8.00;;;4.78;;
74108;SDS011;62466;47.566;7.786;2023-05-20T07:46:13;5.30;;;4.47;;
74108;SDS011;62466;47.566;7.786;2023-05-20T08:32:07;7.82;;;4.70;;
74108;SDS011;62466;47.566;7.786;2023-05-20T08:34:33;7.72;;;4.88;;
74108;SDS011;62466;47.566;7.786;2023-05-20T08:37:01;7.00;;;5.03;;
74108;SDS011;62466;47.566;7.786;2023-05-20T08:39:27;6.72;;;4.50;;
74108;SDS011;62466;47.566;7.786;2023-05-20T08:41:55;5.97;;;4.55;;
74108;SDS011;62466;47.566;7.786;2023-05-20T08:44:22;6.78;;;4.45;;
74108;SDS011;62466;47.566;7.786;2023-05-20T08:46:49;5.60;;;4.32;;
74108;SDS011;62466;47.566;7.786;2023-05-20T08:49:16;12.50;;;5.28;;
74108;SDS011;62466;47.566;7.786;2023-05-20T08:51:42;7.97;;;4.40;;
74108;SDS011;62466;47.566;7.786;2023-05-20T08:54:10;6.50;;;4.65;;
74108;SDS011;62466;47.566;7.786;2023-05-20T08:56:37;6.75;;;4.93;;
74108;SDS011;62466;47.566;7.786;2023-05-20T08:59:03;5.38;;;4.40;;
74108;SDS011;62466;47.566;7.786;2023-05-20T09:01:30;7.80;;;4.47;;
74108;SDS011;62466;47.566;7.786;2023-05-20T09:03:56;6.63;;;5.18;;
74108;SDS011;62466;47.566;7.786;2023-05-20T09:06:22;8.57;;;5.05;;
74108;SDS011;62466;47.566;7.786;2023-05-20T09:08:48;6.50;;;4.40;;
74108;SDS011;62466;47.566;7.786;2023-05-20T09:11:15;7.20;;;4.30;;
74108;SDS011;62466;47.566;7.786;2023-05-20T09:13:41;7.20;;;4.50;;
74108;SDS011;62466;47.566;7.786;2023-05-20T09:16:08;9.93;;;6.00;;
74108;SDS011;62466;47.566;7.786;2023-05-20T09:18:36;10.30;;;5.22;;
74108;SDS011;62466;47.566;7.786;2023-05-20T09:21:03;7.07;;;4.63;;
74108;SDS011;62466;47.566;7.786;2023-05-20T09:23:30;6.78;;;4.97;;
74108;SDS011;62466;47.566;7.786;2023-05-20T09:25:59;11.00;;;5.60;;
74108;SDS011;62466;47.566;7.786;2023-05-20T09:28:25;7.18;;;5.63;;
74108;SDS011;62466;47.566;7.786;2023-05-20T09:30:55;12.07;;;5.53;;
74108;SDS011;62466;47.566;7.786;2023-05-20T09:33:25;11.13;;;5.38;;
74108;SDS011;62466;47.566;7.786;2023-05-20T09:35:52;6.68;;;5.03;;
74108;SDS011;62466;47.566;7.786;2023-05-20T09:38:17;9.13;;;5.75;;
74108;SDS011;62466;47.566;7.786;2023-05-20T09:40:43;7.50;;;5.07;;
74108;SDS011;62466;47.566;7.786;2023-05-20T09:43:10;6.22;;;5.30;;
74108;SDS011;62466;47.566;7.786;2023-05-20T09:45:37;7.18;;;5.60;;
74108;SDS011;62466;47.566;7.786;2023-05-20T09:48:03;9.90;;;5.78;;
74108;SDS011;62466;47.566;7.786;2023-05-20T09:50:33;9.70;;;5.78;;
74108;SDS011;62466;47.566;7.786;2023-05-20T09:53:01;7.32;;;5.68;;
74108;SDS011;62466;47.566;7.786;2023-05-20T09:55:27;8.20;;;5.70;;
74108;SDS011;62466;47.566;7.786;2023-05-20T09:57:54;7.00;;;5.90;;
74108;SDS011;62466;47.566;7.786;2023-05-20T10:00:23;6.20;;;5.15;;
74108;SDS011;62466;47.566;7.786;2023-05-20T10:02:50;7.45;;;5.00;;
74108;SDS011;62466;47.566;7.786;2023-05-20T10:07:58;8.00;;;4.60;;
74108;SDS011;62466;47.566;7.786;2023-05-20T10:10:49;7.75;;;5.00;;
74108;SDS011;62466;47.566;7.786;2023-05-20T10:16:08;7.65;;;4.70;;
74108;SDS011;62466;47.566;7.786;2023-05-20T10:21:38;9.95;;;5.70;;
74108;SDS011;62466;47.566;7.786;2023-05-20T10:24:05;7.70;;;5.43;;
74108;SDS011;62466;47.566;7.786;2023-05-20T10:26:38;7.57;;;5.57;;
74108;SDS011;62466;47.566;7.786;2023-05-20T10:29:14;6.80;;;4.40;;
74108;SDS011;62466;47.566;7.786;2023-05-20T10:31:47;6.32;;;4.88;;
74108;SDS011;62466;47.566;7.786;2023-05-20T10:34:14;6.10;;;4.97;;
74108;SDS011;62466;47.566;7.786;2023-05-20T10:39:26;5.65;;;4.55;;
74108;SDS011;62466;47.566;7.786;2023-05-20T10:41:52;8.10;;;4.90;;
74108;SDS011;62466;47.566;7.786;2023-05-20T10:44:38;7.85;;;5.15;;
74108;SDS011;62466;47.566;7.786;2023-05-20T10:47:08;9.05;;;5.50;;
74108;SDS011;62466;47.566;7.786;2023-05-20T10:49:34;7.97;;;4.93;;
74108;SDS011;62466;47.566;7.786;2023-05-20T10:52:00;6.10;;;4.82;;
74108;SDS011;62466;47.566;7.786;2023-05-20T10:54:34;5.93;;;4.70;;
74108;SDS011;62466;47.566;7.786;2023-05-20T10:57:07;7.80;;;5.65;;
74108;SDS011;62466;47.566;7.786;2023-05-20T10:59:39;8.55;;;5.57;;
74108;SDS011;62466;47.566;7.786;2023-05-20T11:02:05;8.93;;;5.88;;
74108;SDS011;62466;47.566;7.786;2023-05-20T11:04:30;6.40;;;5.15;;
74108;SDS011;62466;47.566;7.786;2023-05-20T11:06:57;8.05;;;6.45;;
74108;SDS011;62466;47.566;7.786;2023-05-20T11:09:23;7.95;;;5.72;;
74108;SDS011;62466;47.566;7.786;2023-05-20T11:11:52;11.20;;;5.45;;
74108;SDS011;62466;47.566;7.786;2023-05-20T11:14:18;6.35;;;5.55;;
74108;SDS011;62466;47.566;7.786;2023-05-20T11:16:45;6.72;;;5.28;;
74108;SDS011;62466;47.566;7.786;2023-05-20T11:19:15;5.95;;;5.22;;
74108;SDS011;62466;47.566;7.786;2023-05-20T11:21:41;7.60;;;4.93;;
74108;SDS011;62466;47.566;7.786;2023-05-20T11:24:08;7.82;;;6.10;;
74108;SDS011;62466;47.566;7.786;2023-05-20T11:26:33;11.35;;;5.65;;
74108;SDS011;62466;47.566;7.786;2023-05-20T11:28:59;6.43;;;5.22;;
74108;SDS011;62466;47.566;7.786;2023-05-20T11:31:25;8.07;;;6.10;;
74108;SDS011;62466;47.566;7.786;2023-05-20T11:33:52;7.28;;;5.88;;
74108;SDS011;62466;47.566;7.786;2023-05-20T11:36:18;8.73;;;6.10;;
74108;SDS011;62466;47.566;7.786;2023-05-20T11:38:47;7.88;;;5.68;;
74108;SDS011;62466;47.566;7.786;2023-05-20T11:41:12;7.30;;;5.20;;
74108;SDS011;62466;47.566;7.786;2023-05-20T11:43:37;8.93;;;4.82;;
74108;SDS011;62466;47.566;7.786;2023-05-20T11:46:03;7.63;;;5.70;;
74108;SDS011;62466;47.566;7.786;2023-05-20T11:48:29;7.22;;;5.03;;
74108;SDS011;62466;47.566;7.786;2023-05-20T11:50:55;6.68;;;5.47;;
74108;SDS011;62466;47.566;7.786;2023-05-20T11:53:21;6.72;;;4.85;;
74108;SDS011;62466;47.566;7.786;2023-05-20T11:58:18;7.45;;;5.35;;
74108;SDS011;62466;47.566;7.786;2023-05-20T12:00:44;7.13;;;5.10;;
74108;SDS011;62466;47.566;7.786;2023-05-20T12:03:10;7.82;;;6.03;;
74108;SDS011;62466;47.566;7.786;2023-05-20T12:05:36;7.47;;;4.93;;
74108;SDS011;62466;47.566;7.786;2023-05-20T12:08:02;6.75;;;5.22;;
74108;SDS011;62466;47.566;7.786;2023-05-20T12:10:28;6.03;;;5.43;;
74108;SDS011;62466;47.566;7.786;2023-05-20T12:12:55;9.30;;;4.78;;
74108;SDS011;62466;47.566;7.786;2023-05-20T12:15:20;8.30;;;5.13;;
74108;SDS011;62466;47.566;7.786;2023-05-20T12:17:52;6.90;;;5.00;;
74108;SDS011;62466;47.566;7.786;2023-05-20T12:20:20;7.07;;;5.50;;
74108;SDS011;62466;47.566;7.786;2023-05-20T12:22:46;6.35;;;5.38;;
74108;SDS011;62466;47.566;7.786;2023-05-20T12:25:13;6.57;;;4.95;;
74108;SDS011;62466;47.566;7.786;2023-05-20T12:27:40;8.63;;;5.45;;
74108;SDS011;62466;47.566;7.786;2023-05-20T12:30:12;6.45;;;5.05;;
74108;SDS011;62466;47.566;7.786;2023-05-20T12:32:40;6.70;;;5.07;;
74108;SDS011;62466;47.566;7.786;2023-05-20T12:35:07;9.50;;;5.18;;
74108;SDS011;62466;47.566;7.786;2023-05-20T12:37:33;6.10;;;4.65;;
74108;SDS011;62466;47.566;7.786;2023-05-20T12:39:59;6.70;;;5.55;;
74108;SDS011;62466;47.566;7.786;2023-05-20T12:42:24;6.32;;;5.20;;
74108;SDS011;62466;47.566;7.786;2023-05-20T12:44:50;8.68;;;6.20;;
74108;SDS011;62466;47.566;7.786;2023-05-20T12:47:15;6.75;;;5.80;;
74108;SDS011;62466;47.566;7.786;2023-05-20T12:49:40;6.28;;;5.18;;
74108;SDS011;62466;47.566;7.786;2023-05-20T12:52:06;6.88;;;5.07;;
74108;SDS011;62466;47.566;7.786;2023-05-20T12:54:31;7.28;;;5.43;;
74108;SDS011;62466;47.566;7.786;2023-05-20T12:56:58;7.07;;;6.28;;
74108;SDS011;62466;47.566;7.786;2023-05-20T12:59:23;9.73;;;6.00;;
74108;SDS011;62466;47.566;7.786;2023-05-20T13:01:49;6.45;;;5.38;;
74108;SDS011;62466;47.566;7.786;2023-05-20T13:04:22;8.88;;;6.55;;
74108;SDS011;62466;47.566;7.786;2023-05-20T13:06:48;7.50;;;6.07;;
74108;SDS011;62466;47.566;7.786;2023-05-20T13:09:14;6.20;;;5.53;;
74108;SDS011;62466;47.566;7.786;2023-05-20T13:11:42;7.47;;;5.72;;
74108;SDS011;62466;47.566;7.786;2023-05-20T13:14:09;6.60;;;5.85;;
74108;SDS011;62466;47.566;7.786;2023-05-20T13:16:34;7.15;;;5.38;;
74108;SDS011;62466;47.566;7.786;2023-05-20T13:19:00;6.05;;;5.38;;
74108;SDS011;62466;47.566;7.786;2023-05-20T13:21:27;5.82;;;5.22;;
74108;SDS011;62466;47.566;7.786;2023-05-20T13:23:52;6.13;;;5.53;;
74108;SDS011;62466;47.566;7.786;2023-05-20T13:26:18;8.50;;;5.53;;
74108;SDS011;62466;47.566;7.786;2023-05-20T13:28:45;8.20;;;5.95;;
74108;SDS011;62466;47.566;7.786;2023-05-20T13:31:10;6.18;;;5.30;;
74108;SDS011;62466;47.566;7.786;2023-05-20T13:33:36;8.20;;;6.28;;
74108;SDS011;62466;47.566;7.786;2023-05-20T13:36:01;7.05;;;5.80;;
74108;SDS011;62466;47.566;7.786;2023-05-20T13:38:27;8.40;;;6.30;;
74108;SDS011;62466;47.566;7.786;2023-05-20T13:40:53;8.98;;;6.05;;
74108;SDS011;62466;47.566;7.786;2023-05-20T13:43:18;6.95;;;5.65;;
74108;SDS011;62466;47.566;7.786;2023-05-20T13:45:44;10.07;;;6.28;;
74108;SDS011;62466;47.566;7.786;2023-05-20T13:48:09;7.28;;;4.88;;
74108;SDS011;62466;47.566;7.786;2023-05-20T13:50:35;6.40;;;5.32;;
74108;SDS011;62466;47.566;7.786;2023-05-20T13:53:01;8.00;;;5.50;;
74108;SDS011;62466;47.566;7.786;2023-05-20T13:55:26;8.65;;;5.80;;
74108;SDS011;62466;47.566;7.786;2023-05-20T13:57:52;8.10;;;5.78;;
74108;SDS011;62466;47.566;7.786;2023-05-20T14:00:18;7.32;;;5.38;;
74108;SDS011;62466;47.566;7.786;2023-05-20T14:02:44;7.43;;;5.32;;
74108;SDS011;62466;47.566;7.786;2023-05-20T14:05:09;7.40;;;5.60;;
74108;SDS011;62466;47.566;7.786;2023-05-20T14:07:35;8.13;;;5.07;;
74108;SDS011;62466;47.566;7.786;2023-05-20T14:10:01;6.57;;;5.00;;
74108;SDS011;62466;47.566;7.786;2023-05-20T14:12:35;10.05;;;5.55;;
74108;SDS011;62466;47.566;7.786;2023-05-20T14:15:00;9.07;;;6.28;;
74108;SDS011;62466;47.566;7.786;2023-05-20T14:17:26;8.32;;;6.15;;
74108;SDS011;62466;47.566;7.786;2023-05-20T14:19:52;6.32;;;5.45;;
74108;SDS011;62466;47.566;7.786;2023-05-20T14:22:18;10.35;;;5.60;;
74108;SDS011;62466;47.566;7.786;2023-05-20T14:24:44;6.30;;;5.05;;
74108;SDS011;62466;47.566;7.786;2023-05-20T14:27:12;6.13;;;5.32;;
74108;SDS011;62466;47.566;7.786;2023-05-20T14:29:41;7.10;;;5.40;;
74108;SDS011;62466;47.566;7.786;2023-05-20T14:32:07;6.80;;;5.72;;
74108;SDS011;62466;47.566;7.786;2023-05-20T14:34:33;7.07;;;5.63;;
74108;SDS011;62466;47.566;7.786;2023-05-20T14:36:58;7.63;;;5.95;;
74108;SDS011;62466;47.566;7.786;2023-05-20T14:39:29;7.20;;;6.15;;
74108;SDS011;62466;47.566;7.786;2023-05-20T14:41:55;6.75;;;5.97;;
74108;SDS011;62466;47.566;7.786;2023-05-20T14:44:20;8.60;;;5.95;;
74108;SDS011;62466;47.566;7.786;2023-05-20T14:46:46;7.43;;;6.53;;
74108;SDS011;62466;47.566;7.786;2023-05-20T14:49:12;5.93;;;5.28;;
74108;SDS011;62466;47.566;7.786;2023-05-20T14:51:40;9.15;;;5.80;;
74108;SDS011;62466;47.566;7.786;2023-05-20T14:54:06;8.52;;;5.88;;
74108;SDS011;62466;47.566;7.786;2023-05-20T14:56:33;10.82;;;6.30;;
74108;SDS011;62466;47.566;7.786;2023-05-20T14:58:58;7.63;;;6.10;;
74108;SDS011;62466;47.566;7.786;2023-05-20T15:01:24;8.00;;;6.22;;
74108;SDS011;62466;47.566;7.786;2023-05-20T15:03:57;10.02;;;5.93;;
74108;SDS011;62466;47.566;7.786;2023-05-20T15:06:22;8.10;;;5.72;;
74108;SDS011;62466;47.566;7.786;2023-05-20T15:08:48;6.53;;;5.75;;
74108;SDS011;62466;47.566;7.786;2023-05-20T15:11:13;8.05;;;4.97;;
74108;SDS011;62466;47.566;7.786;2023-05-20T15:13:54;6.53;;;5.25;;
74108;SDS011;62466;47.566;7.786;2023-05-20T15:16:23;7.03;;;4.97;;
74108;SDS011;62466;47.566;7.786;2023-05-20T15:18:49;7.28;;;5.25;;
74108;SDS011;62466;47.566;7.786;2023-05-20T15:21:19;7.65;;;5.60;;
74108;SDS011;62466;47.566;7.786;2023-05-20T15:23:45;8.20;;;5.90;;
74108;SDS011;62466;47.566;7.786;2023-05-20T15:26:11;7.38;;;5.50;;
74108;SDS011;62466;47.566;7.786;2023-05-20T15:28:38;8.93;;;6.28;;
74108;SDS011;62466;47.566;7.786;2023-05-20T15:31:04;7.68;;;5.32;;
74108;SDS011;62466;47.566;7.786;2023-05-20T15:33:33;7.93;;;5.47;;
74108;SDS011;62466;47.566;7.786;2023-05-20T15:35:58;8.07;;;5.45;;
74108;SDS011;62466;47.566;7.786;2023-05-20T15:38:27;9.27;;;5.65;;
74108;SDS011;62466;47.566;7.786;2023-05-20T15:40:52;6.50;;;5.22;;
74108;SDS011;62466;47.566;7.786;2023-05-20T15:43:20;6.88;;;5.47;;
74108;SDS011;62466;47.566;7.786;2023-05-20T15:45:45;7.10;;;5.35;;
74108;SDS011;62466;47.566;7.786;2023-05-20T15:48:12;8.25;;;5.88;;
74108;SDS011;62466;47.566;7.786;2023-05-20T15:50:38;6.65;;;5.45;;
74108;SDS011;62466;47.566;7.786;2023-05-20T15:53:10;7.63;;;5.30;;
74108;SDS011;62466;47.566;7.786;2023-05-20T15:55:40;6.47;;;5.30;;
74108;SDS011;62466;47.566;7.786;2023-05-20T15:58:13;8.82;;;5.65;;
74108;SDS011;62466;47.566;7.786;2023-05-20T16:01:08;7.10;;;5.80;;
74108;SDS011;62466;47.566;7.786;2023-05-20T16:03:35;6.05;;;5.45;;
74108;SDS011;62466;47.566;7.786;2023-05-20T16:06:01;8.20;;;5.78;;
74108;SDS011;62466;47.566;7.786;2023-05-20T16:08:27;5.95;;;5.05;;
74108;SDS011;62466;47.566;7.786;2023-05-20T16:10:53;7.78;;;6.40;;
74108;SDS011;62466;47.566;7.786;2023-05-20T17:32:42;11.82;;;9.30;;
74108;SDS011;62466;47.566;7.786;2023-05-20T17:35:08;11.52;;;8.70;;
74108;SDS011;62466;47.566;7.786;2023-05-20T17:37:34;10.45;;;8.20;;
74108;SDS011;62466;47.566;7.786;2023-05-20T17:40:00;10.98;;;8.07;;
74108;SDS011;62466;47.566;7.786;2023-05-20T18:01:30;9.38;;;7.70;;
74108;SDS011;62466;47.566;7.786;2023-05-20T19:28:12;10.50;;;9.20;;
74108;SDS011;62466;47.566;7.786;2023-05-20T19:41:33;11.55;;;8.23;;
74108;SDS011;62466;47.566;7.786;2023-05-20T19:43:59;11.27;;;8.57;;
74108;SDS011;62466;47.566;7.786;2023-05-20T19:46:29;11.95;;;8.93;;
74108;SDS011;62466;47.566;7.786;2023-05-20T19:49:01;10.80;;;8.77;;
74108;SDS011;62466;47.566;7.786;2023-05-20T19:51:28;13.02;;;8.95;;
74108;SDS011;62466;47.566;7.786;2023-05-20T19:53:56;9.88;;;8.10;;
74108;SDS011;62466;47.566;7.786;2023-05-20T19:56:28;11.05;;;8.80;;
74108;SDS011;62466;47.566;7.786;2023-05-20T19:59:04;10.30;;;8.55;;
74108;SDS011;62466;47.566;7.786;2023-05-20T20:04:36;10.60;;;9.13;;
74108;SDS011;62466;47.566;7.786;2023-05-20T20:07:08;12.05;;;9.50;;
74108;SDS011;62466;47.566;7.786;2023-05-20T20:09:38;12.30;;;9.80;;
74108;SDS011;62466;47.566;7.786;2023-05-20T20:12:06;11.45;;;9.52;;
74108;SDS011;62466;47.566;7.786;2023-05-20T20:14:37;13.15;;;10.52;;
74108;SDS011;62466;47.566;7.786;2023-05-20T20:17:06;9.93;;;8.82;;
74108;SDS011;62466;47.566;7.786;2023-05-20T20:19:33;10.05;;;8.40;;
74108;SDS011;62466;47.566;7.786;2023-05-20T20:21:58;13.55;;;9.00;;
74108;SDS011;62466;47.566;7.786;2023-05-20T20:24:24;11.55;;;9.32;;
74108;SDS011;62466;47.566;7.786;2023-05-20T20:26:50;14.75;;;10.18;;
74108;SDS011;62466;47.566;7.786;2023-05-20T20:29:18;12.48;;;9.77;;
74108;SDS011;62466;47.566;7.786;2023-05-20T20:31:46;13.05;;;9.40;;
74108;SDS011;62466;47.566;7.786;2023-05-20T20:34:12;11.75;;;9.27;;
74108;SDS011;62466;47.566;7.786;2023-05-20T20:36:38;11.55;;;9.18;;
74108;SDS011;62466;47.566;7.786;2023-05-20T20:39:04;13.45;;;10.20;;
74108;SDS011;62466;47.566;7.786;2023-05-20T20:41:30;11.13;;;9.15;;
74108;SDS011;62466;47.566;7.786;2023-05-20T20:43:56;12.18;;;10.00;;
74108;SDS011;62466;47.566;7.786;2023-05-20T20:46:22;12.38;;;9.80;;
74108;SDS011;62466;47.566;7.786;2023-05-20T20:48:51;14.02;;;9.40;;
74108;SDS011;62466;47.566;7.786;2023-05-20T20:51:18;13.40;;;10.15;;
74108;SDS011;62466;47.566;7.786;2023-05-20T20:53:44;16.08;;;10.63;;
74108;SDS011;62466;47.566;7.786;2023-05-20T20:56:14;15.45;;;10.48;;
74108;SDS011;62466;47.566;7.786;2023-05-20T20:58:43;18.30;;;13.65;;
74108;SDS011;62466;47.566;7.786;2023-05-20T21:01:59;17.77;;;12.23;;
74108;SDS011;62466;47.566;7.786;2023-05-20T21:04:26;21.30;;;14.82;;
74108;SDS011;62466;47.566;7.786;2023-05-20T21:07:08;16.30;;;12.90;;
74108;SDS011;62466;47.566;7.786;2023-05-20T22:44:33;10.77;;;8.18;;
74108;SDS011;62466;47.566;7.786;2023-05-20T23:06:30;11.05;;;9.02;;
74108;SDS011;62466;47.566;7.786;2023-05-20T23:10:00;10.48;;;8.15;;
